createdAt,value
2022-09-01T00:01:55.518Z,1.20
2022-09-01T00:04:26.018Z,1.08
2022-09-01T00:06:55.307Z,1.25
2022-09-01T00:09:25.043Z,1.08
2022-09-01T00:11:55.820Z,1.48
2022-09-01T00:14:30.635Z,1.30
2022-09-01T00:16:59.544Z,1.27
2022-09-01T00:19:27.742Z,1.38
2022-09-01T00:21:56.507Z,1.08
2022-09-01T00:24:26.561Z,1.00
2022-09-01T00:26:55.157Z,1.10
2022-09-01T00:29:24.775Z,1.00
2022-09-01T00:31:53.595Z,1.20
2022-09-01T00:34:21.909Z,0.90
2022-09-01T00:36:51.147Z,1.00
2022-09-01T00:39:19.345Z,1.17
2022-09-01T00:41:50.852Z,1.35
2022-09-01T00:44:23.312Z,1.13
2022-09-01T00:46:55.937Z,1.02
2022-09-01T00:49:28.551Z,0.80
2022-09-01T00:52:01.060Z,0.77
2022-09-01T00:54:32.452Z,0.90
2022-09-01T00:57:03.814Z,1.13
2022-09-01T00:59:32.921Z,1.00
2022-09-01T01:02:01.014Z,0.77
2022-09-01T01:04:30.295Z,1.13
2022-09-01T01:07:03.064Z,1.10
2022-09-01T01:09:33.317Z,0.90
2022-09-01T01:12:05.251Z,1.20
2022-09-01T01:14:37.175Z,0.80
2022-09-01T01:17:05.554Z,1.08
2022-09-01T01:19:58.986Z,0.82
2022-09-01T01:22:53.247Z,1.25
2022-09-01T01:25:24.010Z,0.77
2022-09-01T01:27:52.310Z,0.93
2022-09-01T01:30:21.187Z,1.20
2022-09-01T01:32:49.541Z,1.00
2022-09-01T01:35:20.664Z,0.63
2022-09-01T01:37:48.886Z,0.77
2022-09-01T01:40:21.068Z,1.10
2022-09-01T01:42:53.284Z,0.73
2022-09-01T01:45:23.914Z,0.80
2022-09-01T01:47:54.103Z,1.00
2022-09-01T01:50:22.766Z,0.90
2022-09-01T01:52:55.178Z,1.35
2022-09-01T01:55:29.186Z,0.85
2022-09-01T01:57:59.583Z,0.80
2022-09-01T02:00:34.651Z,0.88
2022-09-01T02:03:02.896Z,0.90
2022-09-01T02:05:33.876Z,1.00
2022-09-01T02:08:04.812Z,0.80
2022-09-01T02:10:34.922Z,1.00
2022-09-01T02:13:07.335Z,0.95
2022-09-01T02:18:07.129Z,1.40
2022-09-01T02:20:35.328Z,0.90
2022-09-01T02:23:11.600Z,0.70
2022-09-01T02:26:04.988Z,1.20
2022-09-01T02:31:07.357Z,0.88
2022-09-01T02:33:36.708Z,0.80
2022-09-01T02:36:07.838Z,1.02
2022-09-01T02:38:36.426Z,0.73
2022-09-01T02:41:07.897Z,0.80
2022-09-01T02:43:37.265Z,0.95
2022-09-01T02:46:06.557Z,1.10
2022-09-01T02:48:37.383Z,0.82
2022-09-01T02:51:08.046Z,1.10
2022-09-01T02:53:36.585Z,0.85
2022-09-01T02:56:09.588Z,0.95
2022-09-01T02:58:46.287Z,0.80
2022-09-01T03:01:16.737Z,0.90
2022-09-01T03:03:44.826Z,1.17
2022-09-01T03:06:14.982Z,0.95
2022-09-01T03:08:43.083Z,1.10
2022-09-01T03:11:13.258Z,1.00
2022-09-01T03:13:43.666Z,1.45
2022-09-01T03:16:12.518Z,1.08
2022-09-01T03:18:40.772Z,1.15
2022-09-01T03:21:09.549Z,0.82
2022-09-01T03:23:38.134Z,0.75
2022-09-01T03:26:06.691Z,1.10
2022-09-01T03:28:34.752Z,0.82
2022-09-01T03:31:04.576Z,1.02
2022-09-01T03:33:33.099Z,1.00
2022-09-01T03:36:01.432Z,0.90
2022-09-01T03:38:29.571Z,1.23
2022-09-01T03:41:02.284Z,1.30
2022-09-01T03:43:36.199Z,1.38
2022-09-01T03:46:06.040Z,1.20
2022-09-01T03:48:34.416Z,1.27
2022-09-01T03:51:02.829Z,1.30
2022-09-01T03:53:32.747Z,1.70
2022-09-01T03:56:01.631Z,1.42
2022-09-01T03:58:29.711Z,1.63
2022-09-01T04:01:01.248Z,1.73
2022-09-01T04:03:34.555Z,2.17
2022-09-01T04:06:04.416Z,2.10
2022-09-01T04:08:33.185Z,2.10
2022-09-01T04:11:05.320Z,1.83
2022-09-01T04:13:37.617Z,1.90
2022-09-01T04:16:10.637Z,1.80
2022-09-01T04:18:40.198Z,2.50
2022-09-01T04:21:10.498Z,2.05
2022-09-01T04:23:38.546Z,2.38
2022-09-01T04:26:10.037Z,2.75
2022-09-01T04:28:40.309Z,2.07
2022-09-01T04:31:14.952Z,2.55
2022-09-01T04:33:46.790Z,2.10
2022-09-01T04:36:19.255Z,2.53
2022-09-01T04:38:47.750Z,2.60
2022-09-01T04:41:17.841Z,2.15
2022-09-01T04:43:47.345Z,2.30
2022-09-01T04:46:15.721Z,2.38
2022-09-01T04:48:46.210Z,2.17
2022-09-01T04:51:15.509Z,1.95
2022-09-01T04:53:48.668Z,1.90
2022-09-01T04:56:19.478Z,2.33
2022-09-01T04:58:47.939Z,2.47
2022-09-01T05:01:17.455Z,2.40
2022-09-01T05:03:48.159Z,2.15
2022-09-01T05:06:17.637Z,2.20
2022-09-01T05:08:46.286Z,2.10
2022-09-01T05:11:17.846Z,1.95
2022-09-01T05:13:46.371Z,1.70
2022-09-01T05:16:16.272Z,2.38
2022-09-01T05:18:48.938Z,1.65
2022-09-01T05:21:19.015Z,1.55
2022-09-01T05:23:49.337Z,1.70
2022-09-01T05:26:19.577Z,1.70
2022-09-01T05:28:48.652Z,1.70
2022-09-01T05:31:19.735Z,2.17
2022-09-01T05:33:50.993Z,1.88
2022-09-01T05:36:20.717Z,1.35
2022-09-01T05:38:49.545Z,1.58
2022-09-01T05:41:20.333Z,1.60
2022-09-01T05:43:55.111Z,1.38
2022-09-01T05:46:28.112Z,1.60
2022-09-01T05:48:58.406Z,1.83
2022-09-01T05:51:43.944Z,1.70
2022-09-01T05:54:12.793Z,1.55
2022-09-01T05:56:44.132Z,1.52
2022-09-01T05:59:28.601Z,1.40
2022-09-01T06:01:56.925Z,1.67
2022-09-01T06:04:26.949Z,1.95
2022-09-01T06:07:06.707Z,1.60
2022-09-01T06:09:39.272Z,1.63
2022-09-01T06:12:09.203Z,2.00
2022-09-01T06:14:37.322Z,1.42
2022-09-01T06:17:06.779Z,1.45
2022-09-01T06:19:37.438Z,1.40
2022-09-01T06:22:05.634Z,1.38
2022-09-01T06:24:33.776Z,1.70
2022-09-01T06:27:02.368Z,1.23
2022-09-01T06:29:31.351Z,1.38
2022-09-01T06:32:02.237Z,1.42
2022-09-01T06:34:34.075Z,1.13
2022-09-01T06:37:03.598Z,1.55
2022-09-01T06:39:31.797Z,1.38
2022-09-01T06:42:01.059Z,1.20
2022-09-01T06:44:32.100Z,1.25
2022-09-01T06:47:00.888Z,1.40
2022-09-01T06:49:34.654Z,1.20
2022-09-01T06:52:05.726Z,1.15
2022-09-01T06:54:35.528Z,1.63
2022-09-01T06:59:54.092Z,1.13
2022-09-01T07:02:26.743Z,1.20
2022-09-01T07:04:55.501Z,1.20
2022-09-01T07:10:21.255Z,1.10
2022-09-01T07:13:06.889Z,1.00
2022-09-01T07:18:26.836Z,0.80
2022-09-01T07:21:07.641Z,0.88
2022-09-01T07:24:08.502Z,1.10
2022-09-01T07:26:35.366Z,0.90
2022-09-01T07:29:06.132Z,0.88
2022-09-01T07:34:47.435Z,1.02
2022-09-01T07:43:12.810Z,1.20
2022-09-01T07:45:47.895Z,0.90
2022-09-01T07:48:36.886Z,0.75
2022-09-01T07:53:57.935Z,0.65
2022-09-01T07:56:30.209Z,0.85
2022-09-01T07:58:58.897Z,1.00
2022-09-01T08:01:28.783Z,0.80
2022-09-01T08:03:58.896Z,0.93
2022-09-01T08:06:28.792Z,1.15
2022-09-01T08:08:59.980Z,1.05
2022-09-01T08:14:33.639Z,0.95
2022-09-01T08:17:16.759Z,0.80
2022-09-01T08:19:47.005Z,1.00
2022-09-01T08:22:15.640Z,1.15
2022-09-01T08:24:44.024Z,0.80
2022-09-01T08:27:13.426Z,0.73
2022-09-01T08:29:42.241Z,1.00
2022-09-01T08:32:11.459Z,0.70
2022-09-01T08:34:39.659Z,0.98
2022-09-01T08:37:08.163Z,1.10
2022-09-01T08:39:37.524Z,1.10
2022-09-01T08:42:09.954Z,1.10
2022-09-01T08:44:46.021Z,1.05
2022-09-01T08:47:16.728Z,0.80
2022-09-01T08:49:47.161Z,0.93
2022-09-01T08:52:22.596Z,1.02
2022-09-01T08:54:52.320Z,1.20
2022-09-01T08:57:22.251Z,1.15
2022-09-01T08:59:53.036Z,0.82
2022-09-01T09:02:31.460Z,0.90
2022-09-01T09:05:20.599Z,0.80
2022-09-01T09:08:07.738Z,0.90
2022-09-01T09:10:43.736Z,0.93
2022-09-01T09:13:16.697Z,1.00
2022-09-01T09:15:49.727Z,0.70
2022-09-01T09:18:39.798Z,0.95
2022-09-01T09:21:16.505Z,0.80
2022-09-01T09:23:47.928Z,0.65
2022-09-01T09:26:21.885Z,0.80
2022-09-01T09:28:50.802Z,0.70
2022-09-01T09:31:36.538Z,0.90
2022-09-01T09:34:05.193Z,0.60
2022-09-01T09:36:36.038Z,1.10
2022-09-01T09:39:07.313Z,0.60
2022-09-01T09:41:36.222Z,0.80
2022-09-01T09:44:11.084Z,0.60
2022-09-01T09:46:43.684Z,0.68
2022-09-01T09:49:19.378Z,0.63
2022-09-01T09:52:17.871Z,0.50
2022-09-01T09:55:03.839Z,0.75
2022-09-01T09:57:35.751Z,0.82
2022-09-01T10:00:08.254Z,0.77
2022-09-01T10:02:39.878Z,0.88
2022-09-01T10:05:26.560Z,0.90
2022-09-01T10:07:56.697Z,0.73
2022-09-01T10:10:32.380Z,0.80
2022-09-01T10:13:02.173Z,0.50
2022-09-01T10:15:33.084Z,0.73
2022-09-01T10:18:29.046Z,0.70
2022-09-01T10:21:00.173Z,0.70
2022-09-01T10:23:30.999Z,0.82
2022-09-01T10:26:05.984Z,0.70
2022-09-01T10:28:35.333Z,0.90
2022-09-01T10:31:05.249Z,1.00
2022-09-01T10:33:38.066Z,0.82
2022-09-01T10:36:07.989Z,1.10
2022-09-01T10:38:36.345Z,0.70
2022-09-01T10:41:14.970Z,0.63
2022-09-01T10:43:45.222Z,0.93
2022-09-01T10:46:52.358Z,0.60
2022-09-01T10:50:01.231Z,0.85
2022-09-01T10:52:58.875Z,0.60
2022-09-01T10:55:32.609Z,0.65
2022-09-01T10:59:30.831Z,1.58
2022-09-01T11:01:18.944Z,0.90
2022-09-01T11:03:56.367Z,0.70
2022-09-01T11:07:11.693Z,0.80
2022-09-01T11:09:36.092Z,1.00
2022-09-01T11:12:16.403Z,0.90
2022-09-01T11:14:50.562Z,0.73
2022-09-01T11:17:22.523Z,0.73
2022-09-01T11:20:06.426Z,0.60
2022-09-01T11:22:38.105Z,0.80
2022-09-01T11:25:40.305Z,0.60
2022-09-01T11:28:11.041Z,0.85
2022-09-01T11:30:52.851Z,0.60
2022-09-01T11:33:40.251Z,0.60
2022-09-01T11:36:14.726Z,0.70
2022-09-01T11:38:50.429Z,0.55
2022-09-01T11:41:26.794Z,0.90
2022-09-01T11:43:58.851Z,0.70
2022-09-01T11:46:29.068Z,0.60
2022-09-01T11:48:59.067Z,0.50
2022-09-01T11:51:27.120Z,0.60
2022-09-01T11:54:00.834Z,0.50
2022-09-01T11:56:29.571Z,0.80
2022-09-01T11:58:57.759Z,0.80
2022-09-01T12:01:34.044Z,0.57
2022-09-01T12:04:22.380Z,0.70
2022-09-01T12:06:56.568Z,0.63
2022-09-01T12:09:35.071Z,0.52
2022-09-01T12:12:03.729Z,0.70
2022-09-01T12:14:48.893Z,0.70
2022-09-01T12:17:21.388Z,0.70
2022-09-01T12:19:49.464Z,0.70
2022-09-01T12:22:19.934Z,0.70
2022-09-01T12:24:50.752Z,0.63
2022-09-01T12:27:19.002Z,0.70
2022-09-01T12:29:47.575Z,0.60
2022-09-01T12:32:16.669Z,0.90
2022-09-01T12:34:46.499Z,0.63
2022-09-01T12:37:21.849Z,0.75
2022-09-01T12:39:54.440Z,0.63
2022-09-01T12:42:29.850Z,0.70
2022-09-01T12:45:11.146Z,0.60
2022-09-01T12:47:50.999Z,0.70
2022-09-01T12:50:45.912Z,0.60
2022-09-01T12:53:25.816Z,0.57
2022-09-01T12:56:15.039Z,0.50
2022-09-01T12:58:46.134Z,0.65
2022-09-01T13:01:26.324Z,0.60
2022-09-01T13:04:25.467Z,0.55
2022-09-01T13:06:54.599Z,0.45
2022-09-01T13:09:22.827Z,0.73
2022-09-01T13:12:08.122Z,0.63
2022-09-01T13:14:36.290Z,0.68
2022-09-01T13:17:05.468Z,0.70
2022-09-01T13:19:42.335Z,1.85
2022-09-01T13:22:10.976Z,0.60
2022-09-01T13:24:39.632Z,0.50
2022-09-01T13:27:24.692Z,0.65
2022-09-01T13:29:53.295Z,0.80
2022-09-01T13:32:24.009Z,0.50
2022-09-01T13:34:53.918Z,0.70
2022-09-01T13:37:22.748Z,0.70
2022-09-01T13:39:50.939Z,0.55
2022-09-01T13:42:20.552Z,0.60
2022-09-01T13:44:52.513Z,0.60
2022-09-01T13:47:31.870Z,1.02
2022-09-01T13:50:10.288Z,0.82
2022-09-01T13:52:39.529Z,0.70
2022-09-01T13:55:09.241Z,0.70
2022-09-01T13:57:38.721Z,0.63
2022-09-01T14:00:10.728Z,0.52
2022-09-01T14:02:39.867Z,0.50
2022-09-01T14:05:08.771Z,0.65
2022-09-01T14:07:37.120Z,0.50
2022-09-01T14:10:07.252Z,0.70
2022-09-01T14:12:35.536Z,0.50
2022-09-01T14:15:16.150Z,0.50
2022-09-01T14:17:46.410Z,0.40
2022-09-01T14:20:18.189Z,0.63
2022-09-01T14:22:46.623Z,0.57
2022-09-01T14:25:16.353Z,0.68
2022-09-01T14:27:44.963Z,0.40
2022-09-01T14:30:17.243Z,0.55
2022-09-01T14:35:13.697Z,0.60
2022-09-01T14:37:42.054Z,0.50
2022-09-01T14:40:16.448Z,0.63
2022-09-01T14:42:47.698Z,0.93
2022-09-01T14:45:19.504Z,0.93
2022-09-01T14:47:48.436Z,0.57
2022-09-01T14:50:21.727Z,0.50
2022-09-01T14:52:53.798Z,0.73
2022-09-01T14:55:22.754Z,0.80
2022-09-01T15:03:06.302Z,0.50
2022-09-01T15:05:37.652Z,0.75
2022-09-01T15:08:08.516Z,0.60
2022-09-01T15:10:36.786Z,0.45
2022-09-01T15:13:05.125Z,0.60
2022-09-01T15:15:33.905Z,0.50
2022-09-01T15:18:02.825Z,0.70
2022-09-01T15:20:48.587Z,0.80
2022-09-01T15:23:19.158Z,0.52
2022-09-01T15:25:47.881Z,0.80
2022-09-01T15:28:16.347Z,0.80
2022-09-01T15:30:45.493Z,0.55
2022-09-01T15:33:15.975Z,0.60
2022-09-01T15:35:46.071Z,0.80
2022-09-01T15:38:17.472Z,0.70
2022-09-01T15:40:57.099Z,0.57
2022-09-01T15:43:28.008Z,0.70
2022-09-01T15:45:58.533Z,0.60
2022-09-01T15:48:28.258Z,0.77
2022-09-01T15:51:08.374Z,0.60
2022-09-01T15:53:36.394Z,0.95
2022-09-01T15:56:04.719Z,0.80
2022-09-01T15:58:44.583Z,0.70
2022-09-01T16:01:22.382Z,0.80
2022-09-01T16:03:50.472Z,0.40
2022-09-01T16:06:19.875Z,0.70
2022-09-01T16:08:47.852Z,0.50
2022-09-01T16:11:15.895Z,0.80
2022-09-01T16:13:44.303Z,1.05
2022-09-01T16:16:24.305Z,0.63
2022-09-01T16:18:56.434Z,0.70
2022-09-01T16:21:35.327Z,0.75
2022-09-01T16:24:06.403Z,0.70
2022-09-01T16:26:36.211Z,0.50
2022-09-01T16:29:10.733Z,1.45
2022-09-01T16:31:42.810Z,0.90
2022-09-01T16:34:18.085Z,0.70
2022-09-01T16:36:52.651Z,0.68
2022-09-01T16:39:29.578Z,0.73
2022-09-01T16:42:06.071Z,0.57
2022-09-01T16:44:42.795Z,0.60
2022-09-01T16:47:26.222Z,0.75
2022-09-01T16:50:06.236Z,0.80
2022-09-01T16:52:42.439Z,0.70
2022-09-01T16:55:19.929Z,0.73
2022-09-01T16:57:59.079Z,0.80
2022-09-01T17:00:34.378Z,0.88
2022-09-01T17:03:08.876Z,0.50
2022-09-01T17:05:49.961Z,1.05
2022-09-01T17:08:22.768Z,1.02
2022-09-01T17:10:55.020Z,0.70
2022-09-01T17:16:01.139Z,0.70
2022-09-01T17:18:35.276Z,0.70
2022-09-01T17:21:10.496Z,0.65
2022-09-01T17:23:43.043Z,0.65
2022-09-01T17:26:16.536Z,0.70
2022-09-01T17:28:48.890Z,0.70
2022-09-01T17:33:57.625Z,0.82
2022-09-01T17:36:32.729Z,0.95
2022-09-01T17:39:08.406Z,0.73
2022-09-01T17:41:40.181Z,0.85
2022-09-01T17:44:18.028Z,0.60
2022-09-01T17:46:52.372Z,1.00
2022-09-01T17:49:23.121Z,0.90
2022-09-01T17:51:56.348Z,1.00
2022-09-01T17:54:31.787Z,0.90
2022-09-01T17:57:07.368Z,1.02
2022-09-01T17:59:43.225Z,0.77
2022-09-01T18:02:24.585Z,0.88
2022-09-01T18:05:01.002Z,0.80
2022-09-01T18:07:40.800Z,0.93
2022-09-01T18:10:14.816Z,0.90
2022-09-01T18:12:55.307Z,0.82
2022-09-01T18:15:25.544Z,0.82
2022-09-01T18:18:01.538Z,1.02
2022-09-01T18:20:33.272Z,1.00
2022-09-01T18:23:04.810Z,1.13
2022-09-01T18:25:40.130Z,0.73
2022-09-01T18:28:08.614Z,0.70
2022-09-01T18:30:58.537Z,0.93
2022-09-01T18:33:28.875Z,0.73
2022-09-01T18:36:13.031Z,0.95
2022-09-01T18:38:44.142Z,0.82
2022-09-01T18:41:24.636Z,1.40
2022-09-01T18:43:57.356Z,1.33
2022-09-01T18:46:31.565Z,1.20
2022-09-01T18:49:04.819Z,1.27
2022-09-01T18:51:45.234Z,0.70
2022-09-01T18:54:17.118Z,1.20
2022-09-01T18:56:51.262Z,0.98
2022-09-01T18:59:48.259Z,1.48
2022-09-01T19:02:26.250Z,0.80
2022-09-01T19:04:58.825Z,1.20
2022-09-01T19:07:34.525Z,1.40
2022-09-01T19:10:08.646Z,1.15
2022-09-01T19:12:42.982Z,1.25
2022-09-01T19:15:16.167Z,1.30
2022-09-01T19:17:57.960Z,1.13
2022-09-01T19:20:31.363Z,1.45
2022-09-01T19:23:02.715Z,1.15
2022-09-01T19:25:39.934Z,1.00
2022-09-01T19:28:16.845Z,1.10
2022-09-01T19:30:49.001Z,1.10
2022-09-01T19:33:21.124Z,1.00
2022-09-01T19:35:53.641Z,1.00
2022-09-01T19:41:02.213Z,0.95
2022-09-01T19:43:35.527Z,1.08
2022-09-01T19:46:13.646Z,1.15
2022-09-01T19:48:46.955Z,0.90
2022-09-01T19:51:19.121Z,0.90
2022-09-01T19:53:52.165Z,1.42
2022-09-01T19:56:23.304Z,1.33
2022-09-01T19:58:59.502Z,1.52
2022-09-01T20:01:39.183Z,1.48
2022-09-01T20:04:15.971Z,1.15
2022-09-01T20:06:45.339Z,1.27
2022-09-01T20:09:16.656Z,1.08
2022-09-01T20:11:48.868Z,1.27
2022-09-01T20:14:39.744Z,1.20
2022-09-01T20:17:13.140Z,1.10
2022-09-01T20:19:45.760Z,0.95
2022-09-01T20:22:21.706Z,1.33
2022-09-01T20:24:49.798Z,0.80
2022-09-01T20:27:33.288Z,1.27
2022-09-01T20:30:05.992Z,1.40
2022-09-01T20:32:41.031Z,1.15
2022-09-01T20:35:14.662Z,1.67
2022-09-01T20:37:50.452Z,1.20
2022-09-01T20:40:21.378Z,1.15
2022-09-01T20:42:59.857Z,1.20
2022-09-01T20:45:30.403Z,2.63
2022-09-01T20:48:01.773Z,1.42
2022-09-01T20:50:34.935Z,1.35
2022-09-01T20:53:13.153Z,1.30
2022-09-01T20:55:47.488Z,1.50
2022-09-01T20:58:21.806Z,1.67
2022-09-01T21:00:55.155Z,1.30
2022-09-01T21:03:33.980Z,1.73
2022-09-01T21:06:06.670Z,1.70
2022-09-01T21:08:41.513Z,1.58
2022-09-01T21:11:23.254Z,1.70
2022-09-01T21:14:03.454Z,1.65
2022-09-01T21:16:42.572Z,1.17
2022-09-01T21:19:15.528Z,1.85
2022-09-01T21:21:47.859Z,1.83
2022-09-01T21:26:44.940Z,1.67
2022-09-01T21:29:24.069Z,1.65
2022-09-01T21:31:53.577Z,1.95
2022-09-01T21:34:21.702Z,1.77
2022-09-01T21:36:49.742Z,1.70
2022-09-01T21:39:21.694Z,2.60
2022-09-01T21:41:49.795Z,2.05
2022-09-01T21:44:17.944Z,1.67
2022-09-01T21:46:45.986Z,2.00
2022-09-01T21:49:15.355Z,1.70
2022-09-01T21:51:43.435Z,1.73
2022-09-01T21:54:11.728Z,1.83
2022-09-01T21:56:39.806Z,1.70
2022-09-01T21:59:08.018Z,2.25
2022-09-01T22:01:37.283Z,2.33
2022-09-01T22:04:05.412Z,1.55
2022-09-01T22:06:35.067Z,1.88
2022-09-01T22:09:03.399Z,2.67
2022-09-01T22:11:48.848Z,1.58
2022-09-01T22:14:16.941Z,1.80
2022-09-01T22:16:45.293Z,1.92
2022-09-01T22:19:14.021Z,1.60
2022-09-01T22:21:43.695Z,2.15
2022-09-01T22:24:11.746Z,1.70
2022-09-01T22:26:39.857Z,1.83
2022-09-01T22:29:08.506Z,1.73
2022-09-01T22:31:37.800Z,2.20
2022-09-01T22:34:06.155Z,1.70
2022-09-01T22:36:38.292Z,1.63
2022-09-01T22:39:09.973Z,1.88
2022-09-01T22:41:39.932Z,2.00
2022-09-01T22:44:09.094Z,1.90
2022-09-01T22:46:38.805Z,1.98
2022-09-01T22:49:07.705Z,1.90
2022-09-01T22:51:37.031Z,1.45
2022-09-01T22:54:08.881Z,1.60
2022-09-01T22:56:39.444Z,1.58
2022-09-01T22:59:10.295Z,1.70
2022-09-01T23:01:42.004Z,1.63
2022-09-01T23:04:12.081Z,1.75
2022-09-01T23:06:41.583Z,1.60
2022-09-01T23:09:11.073Z,1.60
2022-09-01T23:11:39.411Z,1.70
2022-09-01T23:14:07.573Z,2.20
2022-09-01T23:16:35.714Z,2.17
2022-09-01T23:19:04.869Z,1.92
2022-09-01T23:21:35.073Z,2.17
2022-09-01T23:24:03.255Z,1.58
2022-09-01T23:26:33.527Z,1.80
2022-09-01T23:29:02.686Z,1.63
2022-09-01T23:31:33.380Z,1.50
2022-09-01T23:34:01.761Z,1.77
2022-09-01T23:36:30.471Z,1.50
2022-09-01T23:38:58.813Z,1.88
2022-09-01T23:41:29.823Z,1.77
2022-09-01T23:44:01.372Z,1.60
2022-09-01T23:46:31.204Z,1.70
2022-09-01T23:48:59.373Z,1.35
2022-09-01T23:51:27.420Z,1.80
2022-09-01T23:53:55.547Z,1.50
2022-09-01T23:56:26.005Z,2.00
2022-09-01T23:58:54.105Z,1.65
